Time;durP1;ratioP1;P1;durP2;ratioP2;P2;SDS_P1;SDS_P2;PMS_P1;PMS_P2;Temp;Humidity;BMP_temperature;BMP_pressure;BME280_temperature;BME280_humidity;BME280_pressure;Samples;Min_cycle;Max_cycle;Signal;HPM_P1;HPM_P2
2021/09/14 00:01:10;;;;;;;5.22;2.35;;;;;;;;;;4953700;28;20094;-77
2021/09/14 00:03:36;;;;;;;8.18;2.58;;;;;;;;;;4953367;29;20039;-77
2021/09/14 00:06:01;;;;;;;13.10;2.85;;;;;;;;;;4954674;28;20081;-77
2021/09/14 00:08:27;;;;;;;6.47;3.05;;;;;;;;;;4953742;28;20121;-77
2021/09/14 00:10:52;;;;;;;8.20;3.03;;;;;;;;;;4953972;28;20115;-77
2021/09/14 00:13:18;;;;;;;5.30;3.45;;;;;;;;;;4953721;29;20035;-77
2021/09/14 00:15:44;;;;;;;9.25;3.40;;;;;;;;;;4953066;28;20046;-77
2021/09/14 00:18:09;;;;;;;4.82;2.75;;;;;;;;;;4953892;28;20381;-77
2021/09/14 00:20:34;;;;;;;11.30;4.10;;;;;;;;;;4952495;29;20122;-77
2021/09/14 00:23:02;;;;;;;7.70;2.85;;;;;;;;;;4953527;29;20035;-77
2021/09/14 00:25:27;;;;;;;9.07;3.17;;;;;;;;;;4952356;29;20122;-76
2021/09/14 00:27:53;;;;;;;7.32;3.42;;;;;;;;;;4952086;29;20126;-77
2021/09/14 00:30:18;;;;;;;10.13;3.83;;;;;;;;;;4954333;28;20043;-77
2021/09/14 00:32:44;;;;;;;7.15;3.30;;;;;;;;;;4953595;28;20051;-77
2021/09/14 00:35:09;;;;;;;6.00;4.25;;;;;;;;;;4954129;28;20063;-77
2021/09/14 00:37:35;;;;;;;11.95;3.55;;;;;;;;;;4954609;28;20422;-77
2021/09/14 00:40:01;;;;;;;4.80;3.33;;;;;;;;;;4957071;28;20122;-77
2021/09/14 00:42:26;;;;;;;5.05;3.33;;;;;;;;;;4955986;29;20035;-77
2021/09/14 00:44:52;;;;;;;12.57;3.50;;;;;;;;;;4957209;28;20027;-77
2021/09/14 00:47:17;;;;;;;7.93;3.40;;;;;;;;;;4955466;28;20043;-77
2021/09/14 00:49:43;;;;;;;7.65;3.30;;;;;;;;;;4957057;28;20122;-77
2021/09/14 00:52:09;;;;;;;8.98;3.08;;;;;;;;;;4956927;28;20045;-77
2021/09/14 00:54:37;;;;;;;5.30;3.08;;;;;;;;;;4956910;28;20031;-77
2021/09/14 00:57:03;;;;;;;3.22;2.75;;;;;;;;;;4957385;28;20468;-77
2021/09/14 00:59:29;;;;;;;10.35;2.70;;;;;;;;;;4956389;29;20094;-77
2021/09/14 01:01:55;;;;;;;7.82;3.10;;;;;;;;;;4956647;29;20031;-77
2021/09/14 01:04:21;;;;;;;4.35;3.13;;;;;;;;;;4956766;28;20473;-77
2021/09/14 01:06:47;;;;;;;4.43;2.67;;;;;;;;;;4956046;29;20028;-77
2021/09/14 01:09:14;;;;;;;6.82;2.33;;;;;;;;;;4954792;28;20035;-77
2021/09/14 01:11:40;;;;;;;7.20;3.00;;;;;;;;;;4957479;28;20042;-77
2021/09/14 01:14:08;;;;;;;11.30;3.50;;;;;;;;;;4954658;29;20055;-77
2021/09/14 01:16:37;;;;;;;10.30;4.78;;;;;;;;;;4955429;29;20054;-77
2021/09/14 01:19:05;;;;;;;14.13;3.13;;;;;;;;;;4956978;28;20031;-77
2021/09/14 01:21:31;;;;;;;9.25;3.35;;;;;;;;;;4955393;29;20038;-77
2021/09/14 01:23:59;;;;;;;14.82;4.10;;;;;;;;;;4939832;28;20043;-77
2021/09/14 01:26:27;;;;;;;8.00;3.30;;;;;;;;;;4954560;29;20042;-78
2021/09/14 01:28:53;;;;;;;8.60;3.55;;;;;;;;;;4954978;28;20385;-78
2021/09/14 01:31:20;;;;;;;10.35;3.67;;;;;;;;;;4956976;28;20046;-78
2021/09/14 01:33:55;;;;;;;7.47;2.90;;;;;;;;;;4956132;28;20071;-77
2021/09/14 01:36:23;;;;;;;12.30;4.45;;;;;;;;;;4956012;29;20038;-77
2021/09/14 01:38:50;;;;;;;28.85;4.20;;;;;;;;;;4955535;28;20070;-77
2021/09/14 01:41:16;;;;;;;13.93;4.85;;;;;;;;;;4954266;28;20509;-77
2021/09/14 01:43:43;;;;;;;12.52;4.85;;;;;;;;;;4954674;28;20401;-77
2021/09/14 01:46:09;;;;;;;21.92;5.50;;;;;;;;;;4937988;29;20039;-77
2021/09/14 01:48:35;;;;;;;13.52;4.25;;;;;;;;;;4955543;28;20050;-77
2021/09/14 01:51:01;;;;;;;29.20;5.88;;;;;;;;;;4955621;28;20047;-77
2021/09/14 01:53:28;;;;;;;19.67;4.85;;;;;;;;;;4955733;29;20031;-77
2021/09/14 01:56:00;;;;;;;10.35;4.32;;;;;;;;;;4955812;29;20042;-77
2021/09/14 01:58:31;;;;;;;7.20;4.78;;;;;;;;;;4954384;28;20043;-77
2021/09/14 02:01:17;;;;;;;23.00;4.13;;;;;;;;;;4938181;29;20032;-77
2021/09/14 02:03:52;;;;;;;10.32;4.63;;;;;;;;;;4954957;28;20039;-77
2021/09/14 02:09:16;;;;;;;12.18;5.07;;;;;;;;;;4944305;28;20035;-77
2021/09/14 02:43:04;;;;;;;5.88;3.53;;;;;;;;;;4929850;29;20036;-76
2021/09/14 02:58:37;;;;;;;7.57;3.92;;;;;;;;;;4954454;29;20060;-78
2021/09/14 02:59:31;;;;;;;9.75;3.90;;;;;;;;;;4954232;28;20031;-76
2021/09/14 03:01:58;;;;;;;9.52;4.72;;;;;;;;;;4957718;28;20457;-76
2021/09/14 03:04:24;;;;;;;10.18;4.32;;;;;;;;;;4954818;29;20046;-76
2021/09/14 03:06:53;;;;;;;5.88;3.90;;;;;;;;;;4953191;29;20086;-76
2021/09/14 03:09:33;;;;;;;13.75;3.63;;;;;;;;;;4953713;28;20576;-76
2021/09/14 03:11:59;;;;;;;13.80;3.50;;;;;;;;;;4953436;29;20067;-76
2021/09/14 03:14:26;;;;;;;8.45;4.10;;;;;;;;;;4952127;28;20125;-76
2021/09/14 03:16:52;;;;;;;8.15;3.45;;;;;;;;;;4953266;28;20066;-76
2021/09/14 03:19:17;;;;;;;4.97;3.58;;;;;;;;;;4954236;28;20035;-76
2021/09/14 03:21:42;;;;;;;10.13;3.40;;;;;;;;;;4952948;29;20042;-76
2021/09/14 03:24:10;;;;;;;7.95;3.88;;;;;;;;;;4953176;29;20058;-76
2021/09/14 03:26:35;;;;;;;12.52;3.80;;;;;;;;;;4954210;28;20554;-76
2021/09/14 03:29:01;;;;;;;5.97;3.58;;;;;;;;;;4952306;28;20042;-76
2021/09/14 03:31:33;;;;;;;4.68;3.47;;;;;;;;;;4952374;29;20408;-76
2021/09/14 03:33:59;;;;;;;18.50;3.33;;;;;;;;;;4954354;29;20047;-76
2021/09/14 03:36:25;;;;;;;72.70;4.50;;;;;;;;;;4952452;29;20035;-76
2021/09/14 03:38:51;;;;;;;3.42;3.13;;;;;;;;;;4952151;28;20031;-76
2021/09/14 03:41:16;;;;;;;7.10;4.55;;;;;;;;;;4952651;29;20091;-76
2021/09/14 03:43:43;;;;;;;28.33;4.47;;;;;;;;;;4952943;28;20042;-76
2021/09/14 03:46:09;;;;;;;11.52;4.07;;;;;;;;;;4952073;29;20618;-76
2021/09/14 03:48:34;;;;;;;13.38;4.15;;;;;;;;;;4953956;28;20396;-76
2021/09/14 03:51:01;;;;;;;23.40;3.47;;;;;;;;;;4953499;29;20382;-76
2021/09/14 03:53:27;;;;;;;6.00;3.70;;;;;;;;;;4936833;29;20065;-76
2021/09/14 03:55:53;;;;;;;6.75;3.88;;;;;;;;;;4952993;29;20064;-76
2021/09/14 03:58:18;;;;;;;74.32;4.50;;;;;;;;;;4952565;29;20043;-76
2021/09/14 04:00:51;;;;;;;17.58;3.83;;;;;;;;;;4952576;29;20038;-76
2021/09/14 04:03:56;;;;;;;14.55;3.38;;;;;;;;;;4952249;28;20031;-76
2021/09/14 04:06:33;;;;;;;7.03;3.22;;;;;;;;;;4950761;28;20043;-76
2021/09/14 04:08:59;;;;;;;7.45;3.60;;;;;;;;;;4951134;28;20032;-76
2021/09/14 04:11:30;;;;;;;3.95;3.28;;;;;;;;;;4952791;28;20066;-77
2021/09/14 04:13:57;;;;;;;16.25;3.65;;;;;;;;;;4955791;28;20039;-76
2021/09/14 04:16:23;;;;;;;28.13;4.30;;;;;;;;;;4956576;29;20031;-77
2021/09/14 04:18:49;;;;;;;4.55;4.03;;;;;;;;;;4956880;28;20053;-76
2021/09/14 04:21:16;;;;;;;9.60;3.88;;;;;;;;;;4957616;28;20039;-76
2021/09/14 04:23:41;;;;;;;15.43;3.63;;;;;;;;;;4956642;28;20043;-76
2021/09/14 04:26:06;;;;;;;53.08;4.32;;;;;;;;;;4956526;28;20485;-77
2021/09/14 04:28:33;;;;;;;77.00;4.53;;;;;;;;;;4936983;29;20477;-77
2021/09/14 04:30:59;;;;;;;36.42;4.18;;;;;;;;;;4940072;29;20031;-77
2021/09/14 04:33:25;;;;;;;14.00;4.05;;;;;;;;;;4956311;29;20138;-77
2021/09/14 04:35:53;;;;;;;109.72;5.32;;;;;;;;;;4956846;29;20042;-76
2021/09/14 04:38:21;;;;;;;9.73;3.80;;;;;;;;;;4956667;29;20471;-77
2021/09/14 04:40:47;;;;;;;3.28;2.97;;;;;;;;;;4956541;28;20023;-77
2021/09/14 04:43:13;;;;;;;36.65;3.70;;;;;;;;;;4955882;29;20505;-77
2021/09/14 04:45:38;;;;;;;36.15;3.80;;;;;;;;;;4955292;29;20140;-77
2021/09/14 04:48:04;;;;;;;48.88;3.90;;;;;;;;;;4955500;28;20035;-77
2021/09/14 04:50:29;;;;;;;6.45;3.05;;;;;;;;;;4956947;28;20039;-77
2021/09/14 04:52:55;;;;;;;5.05;2.90;;;;;;;;;;4956498;28;20115;-77
2021/09/14 04:55:21;;;;;;;2.70;2.50;;;;;;;;;;4956747;29;20039;-77
2021/09/14 04:57:46;;;;;;;2.60;2.33;;;;;;;;;;4956349;29;20035;-77
2021/09/14 05:00:14;;;;;;;3.28;2.08;;;;;;;;;;4956455;29;20042;-77
2021/09/14 05:02:41;;;;;;;2.70;2.45;;;;;;;;;;4955828;29;20043;-77
2021/09/14 05:05:07;;;;;;;2.80;2.15;;;;;;;;;;4956303;28;20039;-77
2021/09/14 05:07:33;;;;;;;9.15;2.97;;;;;;;;;;4956880;29;20043;-76
2021/09/14 05:09:59;;;;;;;2.67;2.15;;;;;;;;;;4955576;28;20167;-76
2021/09/14 05:12:24;;;;;;;2.60;2.25;;;;;;;;;;4956687;29;20125;-77
2021/09/14 05:14:50;;;;;;;2.75;2.35;;;;;;;;;;4957639;28;20414;-77
2021/09/14 05:17:33;;;;;;;4.25;3.42;;;;;;;;;;4956296;28;20046;-77
2021/09/14 05:20:05;;;;;;;11.30;3.00;;;;;;;;;;4938953;29;20032;-78
2021/09/14 05:22:34;;;;;;;7.78;3.10;;;;;;;;;;4956059;29;20129;-76
2021/09/14 05:25:01;;;;;;;11.75;2.83;;;;;;;;;;4954527;28;20073;-76
2021/09/14 05:27:27;;;;;;;3.92;2.75;;;;;;;;;;4956422;29;20481;-76
2021/09/14 05:29:52;;;;;;;2.85;2.55;;;;;;;;;;4953488;29;20169;-77
2021/09/14 05:32:18;;;;;;;2.90;2.42;;;;;;;;;;4956085;29;20047;-76
2021/09/14 05:34:46;;;;;;;5.90;2.53;;;;;;;;;;4956162;29;20031;-77
2021/09/14 05:37:13;;;;;;;6.28;2.67;;;;;;;;;;4954149;29;20163;-77
2021/09/14 05:39:39;;;;;;;3.13;2.83;;;;;;;;;;4956256;28;20444;-76
2021/09/14 05:42:06;;;;;;;8.50;3.03;;;;;;;;;;4955253;29;20122;-76
2021/09/14 05:44:34;;;;;;;6.53;2.90;;;;;;;;;;4955372;29;20096;-77
2021/09/14 05:47:01;;;;;;;4.82;2.50;;;;;;;;;;4956541;28;20042;-77
2021/09/14 05:49:26;;;;;;;3.03;2.72;;;;;;;;;;4954672;29;20485;-76
2021/09/14 05:51:52;;;;;;;11.13;2.92;;;;;;;;;;4955670;28;20041;-76
2021/09/14 05:54:17;;;;;;;8.25;3.00;;;;;;;;;;4953302;29;20041;-77
2021/09/14 05:56:43;;;;;;;19.77;3.13;;;;;;;;;;4953716;28;20074;-76
2021/09/14 05:59:11;;;;;;;67.35;3.90;;;;;;;;;;4954720;28;20028;-76
2021/09/14 06:01:38;;;;;;;4.53;2.80;;;;;;;;;;4954604;28;20085;-77
2021/09/14 06:04:04;;;;;;;24.90;3.10;;;;;;;;;;4954709;29;20034;-77
2021/09/14 06:06:29;;;;;;;63.58;3.50;;;;;;;;;;4955052;29;20090;-77
2021/09/14 06:08:54;;;;;;;5.65;2.80;;;;;;;;;;4943580;28;20130;-77
2021/09/14 06:11:20;;;;;;;2.92;2.63;;;;;;;;;;4948834;29;20042;-77
2021/09/14 06:13:48;;;;;;;4.32;2.50;;;;;;;;;;4954956;29;20110;-77
2021/09/14 06:16:16;;;;;;;34.80;3.20;;;;;;;;;;4954735;29;20061;-76
2021/09/14 06:18:42;;;;;;;18.90;2.85;;;;;;;;;;4954574;28;20062;-76
2021/09/14 06:21:08;;;;;;;7.88;2.60;;;;;;;;;;4953596;28;20424;-76
2021/09/14 06:23:34;;;;;;;4.70;3.15;;;;;;;;;;4953429;29;20035;-76
2021/09/14 06:26:05;;;;;;;10.57;2.90;;;;;;;;;;4953959;29;20042;-76
2021/09/14 06:28:30;;;;;;;65.13;3.58;;;;;;;;;;4954110;29;20046;-76
2021/09/14 06:30:55;;;;;;;35.55;3.70;;;;;;;;;;4955262;28;20039;-77
2021/09/14 06:33:25;;;;;;;6.63;2.53;;;;;;;;;;4953968;28;20482;-76
2021/09/14 06:35:52;;;;;;;22.80;4.25;;;;;;;;;;4953563;28;20039;-77
2021/09/14 06:38:24;;;;;;;6.25;3.80;;;;;;;;;;4955947;28;20461;-77
2021/09/14 06:40:51;;;;;;;9.95;3.35;;;;;;;;;;4954199;28;20035;-77
2021/09/14 06:43:19;;;;;;;140.70;5.70;;;;;;;;;;4955724;29;20101;-78
2021/09/14 06:45:59;;;;;;;5.78;3.80;;;;;;;;;;4955149;28;20039;-77
2021/09/14 06:48:30;;;;;;;6.00;3.85;;;;;;;;;;4940170;29;20481;-77
2021/09/14 06:50:56;;;;;;;9.57;3.97;;;;;;;;;;4955792;29;20032;-77
2021/09/14 06:53:21;;;;;;;4.03;3.63;;;;;;;;;;4956707;29;20572;-76
2021/09/14 06:55:47;;;;;;;7.57;3.88;;;;;;;;;;4955112;29;20508;-80
2021/09/14 06:58:12;;;;;;;5.53;3.65;;;;;;;;;;4955691;29;20039;-76
2021/09/14 07:00:37;;;;;;;6.78;3.63;;;;;;;;;;4956540;28;20383;-77
2021/09/14 07:03:04;;;;;;;3.47;3.17;;;;;;;;;;4957074;28;20039;-78
2021/09/14 07:05:30;;;;;;;3.95;3.20;;;;;;;;;;4955358;28;20132;-76
2021/09/14 07:07:56;;;;;;;3.42;3.13;;;;;;;;;;4955984;28;20038;-76
2021/09/14 07:10:21;;;;;;;3.40;2.95;;;;;;;;;;4949133;28;20047;-76
2021/09/14 07:12:47;;;;;;;4.43;2.83;;;;;;;;;;4953427;29;20082;-77
2021/09/14 07:15:12;;;;;;;3.17;2.88;;;;;;;;;;4953677;29;20066;-76
2021/09/14 07:17:38;;;;;;;4.43;3.15;;;;;;;;;;4954909;28;20031;-77
2021/09/14 07:20:07;;;;;;;8.80;3.30;;;;;;;;;;4954245;29;20031;-77
2021/09/14 07:22:33;;;;;;;9.77;3.30;;;;;;;;;;4953417;28;20031;-77
2021/09/14 07:24:58;;;;;;;4.60;3.17;;;;;;;;;;4954805;28;20096;-77
2021/09/14 07:27:24;;;;;;;5.00;3.28;;;;;;;;;;4954386;28;20666;-77
2021/09/14 07:29:51;;;;;;;3.88;2.90;;;;;;;;;;4955189;29;20122;-76
2021/09/14 07:32:16;;;;;;;3.83;3.15;;;;;;;;;;4953234;29;20043;-77
2021/09/14 07:34:42;;;;;;;9.00;4.05;;;;;;;;;;4956342;28;20027;-78
2021/09/14 07:37:07;;;;;;;3.08;2.75;;;;;;;;;;4955708;28;20098;-77
2021/09/14 07:39:32;;;;;;;3.28;2.75;;;;;;;;;;4954906;28;20035;-75
2021/09/14 07:41:58;;;;;;;10.52;7.40;;;;;;;;;;4955144;28;20050;-75
2021/09/14 07:44:23;;;;;;;6.75;3.67;;;;;;;;;;4953086;29;20039;-75
2021/09/14 07:46:49;;;;;;;7.15;2.80;;;;;;;;;;4951159;28;20042;-75
2021/09/14 07:49:15;;;;;;;3.47;2.50;;;;;;;;;;4952341;28;20043;-76
2021/09/14 07:51:40;;;;;;;4.53;2.70;;;;;;;;;;4954111;28;20046;-75
2021/09/14 07:54:05;;;;;;;3.22;2.50;;;;;;;;;;4953371;29;20027;-76
2021/09/14 07:56:31;;;;;;;4.03;3.55;;;;;;;;;;4952305;28;20047;-75
2021/09/14 07:58:56;;;;;;;3.92;2.55;;;;;;;;;;4954141;29;20034;-75
2021/09/14 08:01:22;;;;;;;3.92;2.70;;;;;;;;;;4954968;28;20121;-76
2021/09/14 08:03:47;;;;;;;4.60;2.72;;;;;;;;;;4954781;29;20531;-76
2021/09/14 08:06:12;;;;;;;6.50;2.80;;;;;;;;;;4952928;28;20043;-75
2021/09/14 08:08:38;;;;;;;8.73;2.97;;;;;;;;;;4954008;29;20053;-75
2021/09/14 08:11:03;;;;;;;4.00;2.78;;;;;;;;;;4953563;28;20508;-75
2021/09/14 08:13:29;;;;;;;4.30;2.63;;;;;;;;;;4952859;28;20166;-76
2021/09/14 08:15:54;;;;;;;3.83;2.60;;;;;;;;;;4954289;28;20035;-76
2021/09/14 08:18:19;;;;;;;4.45;3.03;;;;;;;;;;4954692;29;20500;-76
2021/09/14 08:20:45;;;;;;;7.13;3.25;;;;;;;;;;4954434;28;20488;-78
2021/09/14 08:23:11;;;;;;;3.85;2.80;;;;;;;;;;4955665;28;20035;-79
2021/09/14 08:25:36;;;;;;;4.05;2.80;;;;;;;;;;4959227;29;20039;-78
2021/09/14 08:28:02;;;;;;;4.70;3.00;;;;;;;;;;4957616;28;20039;-78
2021/09/14 08:30:27;;;;;;;6.13;2.97;;;;;;;;;;4956338;28;20036;-77
2021/09/14 08:32:53;;;;;;;6.43;3.60;;;;;;;;;;4954079;28;20075;-76
2021/09/14 08:35:18;;;;;;;9.10;4.05;;;;;;;;;;4954545;28;20027;-79
2021/09/14 08:37:44;;;;;;;5.30;3.60;;;;;;;;;;4958621;29;20405;-79
2021/09/14 08:40:10;;;;;;;8.20;4.22;;;;;;;;;;4956078;28;20047;-78
2021/09/14 08:42:37;;;;;;;7.30;4.07;;;;;;;;;;4955907;29;20039;-78
2021/09/14 08:45:09;;;;;;;7.57;4.10;;;;;;;;;;4955275;28;20054;-77
2021/09/14 08:47:39;;;;;;;9.93;6.07;;;;;;;;;;4936821;29;20139;-77
2021/09/14 08:50:07;;;;;;;9.57;4.40;;;;;;;;;;4953005;29;20047;-76
2021/09/14 08:52:33;;;;;;;9.43;3.78;;;;;;;;;;4936391;28;20031;-76
2021/09/14 08:54:58;;;;;;;8.60;4.18;;;;;;;;;;4953265;28;20031;-75
2021/09/14 08:57:24;;;;;;;5.18;3.70;;;;;;;;;;4951898;29;20043;-76
2021/09/14 08:59:49;;;;;;;8.02;4.47;;;;;;;;;;4957288;28;20039;-76
2021/09/14 09:02:16;;;;;;;8.27;4.10;;;;;;;;;;4957526;28;20031;-76
2021/09/14 09:05:14;;;;;;;7.88;4.03;;;;;;;;;;4956622;28;20175;-76
2021/09/14 09:07:40;;;;;;;7.35;3.92;;;;;;;;;;4903442;29;20056;-77
2021/09/14 09:10:16;;;;;;;9.75;3.78;;;;;;;;;;4948581;28;20077;-76
2021/09/14 09:12:46;;;;;;;8.57;3.67;;;;;;;;;;4956760;28;20043;-76
2021/09/14 09:15:25;;;;;;;6.88;3.88;;;;;;;;;;4956564;28;20043;-76
2021/09/14 09:18:11;;;;;;;9.40;3.65;;;;;;;;;;4955813;29;20123;-76
2021/09/14 09:20:39;;;;;;;7.85;3.42;;;;;;;;;;4956816;28;20118;-75
2021/09/14 09:23:09;;;;;;;5.43;3.38;;;;;;;;;;4956988;29;20043;-75
2021/09/14 09:25:35;;;;;;;4.32;3.28;;;;;;;;;;4956597;28;20552;-76
2021/09/14 09:28:10;;;;;;;11.20;3.97;;;;;;;;;;4957071;28;20039;-75
2021/09/14 09:30:38;;;;;;;7.10;4.70;;;;;;;;;;4957453;28;20058;-75
2021/09/14 09:33:07;;;;;;;7.43;3.92;;;;;;;;;;4956072;28;20058;-75
2021/09/14 09:35:35;;;;;;;6.43;3.40;;;;;;;;;;4956487;28;20115;-75
2021/09/14 09:38:02;;;;;;;7.75;3.75;;;;;;;;;;4957003;28;20039;-76
2021/09/14 09:40:31;;;;;;;7.20;3.78;;;;;;;;;;4956608;28;20043;-76
2021/09/14 09:42:58;;;;;;;14.98;5.93;;;;;;;;;;4956384;28;20114;-76
2021/09/14 09:45:23;;;;;;;6.63;4.00;;;;;;;;;;4956586;28;20071;-75
2021/09/14 09:47:48;;;;;;;10.85;3.80;;;;;;;;;;4955503;29;20050;-75
2021/09/14 09:50:14;;;;;;;4.90;3.30;;;;;;;;;;4955819;28;20449;-75
2021/09/14 09:52:43;;;;;;;10.68;3.90;;;;;;;;;;4954492;28;20074;-76
2021/09/14 09:55:09;;;;;;;12.60;3.78;;;;;;;;;;4956075;28;20039;-75
2021/09/14 09:57:36;;;;;;;6.32;3.50;;;;;;;;;;4956136;28;20397;-76
2021/09/14 10:00:08;;;;;;;6.57;3.08;;;;;;;;;;4956170;28;20031;-76
2021/09/14 10:02:52;;;;;;;7.68;3.08;;;;;;;;;;4955698;28;20031;-76
2021/09/14 10:05:19;;;;;;;6.80;3.75;;;;;;;;;;4954674;28;20038;-76
2021/09/14 10:07:47;;;;;;;7.72;3.15;;;;;;;;;;4956373;29;20393;-76
2021/09/14 10:10:12;;;;;;;11.18;3.40;;;;;;;;;;4954804;28;20035;-76
2021/09/14 10:12:38;;;;;;;8.52;3.50;;;;;;;;;;4954456;28;20038;-76
2021/09/14 10:15:11;;;;;;;9.90;3.03;;;;;;;;;;4954716;28;20037;-76
2021/09/14 10:17:51;;;;;;;5.00;2.78;;;;;;;;;;4955634;29;20047;-76
2021/09/14 10:20:19;;;;;;;8.90;3.35;;;;;;;;;;4936744;29;20405;-75
2021/09/14 10:22:57;;;;;;;6.82;3.47;;;;;;;;;;4951862;29;20118;-76
2021/09/14 10:25:22;;;;;;;4.85;2.53;;;;;;;;;;4956481;28;20047;-76
2021/09/14 10:27:47;;;;;;;11.45;3.35;;;;;;;;;;4956156;28;20082;-76
2021/09/14 10:30:21;;;;;;;4.53;2.50;;;;;;;;;;4954409;28;20039;-77
2021/09/14 10:32:46;;;;;;;5.63;2.80;;;;;;;;;;4954947;28;20051;-77
2021/09/14 10:35:23;;;;;;;7.88;2.92;;;;;;;;;;4954519;28;20101;-76
2021/09/14 10:37:50;;;;;;;5.13;2.55;;;;;;;;;;4954576;28;20078;-77
2021/09/14 10:40:16;;;;;;;7.47;3.53;;;;;;;;;;4954481;28;20031;-77
2021/09/14 10:42:47;;;;;;;8.60;3.00;;;;;;;;;;4953845;29;20383;-76
2021/09/14 10:45:16;;;;;;;9.02;2.80;;;;;;;;;;4956213;29;20050;-76
2021/09/14 10:47:48;;;;;;;8.85;2.95;;;;;;;;;;4954608;28;20047;-76
2021/09/14 10:50:28;;;;;;;8.07;3.10;;;;;;;;;;4953583;29;20071;-76
2021/09/14 10:52:59;;;;;;;6.75;2.42;;;;;;;;;;4955638;29;20127;-76
2021/09/14 10:55:24;;;;;;;5.43;2.60;;;;;;;;;;4954808;28;20035;-76
2021/09/14 10:57:56;;;;;;;6.05;2.50;;;;;;;;;;4954311;29;20035;-76
2021/09/14 11:00:33;;;;;;;6.05;2.70;;;;;;;;;;4955381;28;20031;-76
2021/09/14 11:03:03;;;;;;;8.43;2.47;;;;;;;;;;4954719;28;20469;-76
2021/09/14 11:05:30;;;;;;;11.75;4.93;;;;;;;;;;4955056;28;20062;-76
2021/09/14 11:08:02;;;;;;;5.05;2.75;;;;;;;;;;4955161;28;20130;-76
2021/09/14 11:10:32;;;;;;;6.20;2.63;;;;;;;;;;4938582;28;20047;-76
2021/09/14 11:12:58;;;;;;;6.45;2.55;;;;;;;;;;4955927;28;20470;-76
2021/09/14 11:15:25;;;;;;;7.30;3.05;;;;;;;;;;4954623;28;20063;-76
2021/09/14 11:17:50;;;;;;;4.13;2.83;;;;;;;;;;4954655;28;20039;-76
2021/09/14 11:20:20;;;;;;;6.95;2.90;;;;;;;;;;4954627;28;20035;-76
2021/09/14 11:22:48;;;;;;;5.95;2.40;;;;;;;;;;4954003;28;20032;-76
2021/09/14 11:25:19;;;;;;;7.40;2.50;;;;;;;;;;4954100;28;20027;-76
2021/09/14 11:27:53;;;;;;;7.78;2.80;;;;;;;;;;4954440;28;20031;-76
2021/09/14 11:30:18;;;;;;;6.83;2.50;;;;;;;;;;4953867;28;20126;-76
2021/09/14 11:32:44;;;;;;;6.90;2.60;;;;;;;;;;4953160;28;20117;-76
2021/09/14 11:35:11;;;;;;;6.82;3.13;;;;;;;;;;4953715;29;20086;-76
2021/09/14 11:37:36;;;;;;;5.82;2.95;;;;;;;;;;4954363;28;20095;-76
2021/09/14 11:40:02;;;;;;;10.52;2.95;;;;;;;;;;4954529;29;20109;-76
2021/09/14 11:42:27;;;;;;;7.43;2.75;;;;;;;;;;4954125;28;20478;-76
2021/09/14 11:45:05;;;;;;;4.75;2.60;;;;;;;;;;4952625;28;20063;-76
2021/09/14 11:47:31;;;;;;;8.82;2.33;;;;;;;;;;4953595;28;20504;-76
2021/09/14 11:49:56;;;;;;;6.75;2.92;;;;;;;;;;4953874;28;20043;-77
2021/09/14 11:52:22;;;;;;;8.02;3.30;;;;;;;;;;4934014;29;20035;-76
2021/09/14 11:54:48;;;;;;;6.60;2.75;;;;;;;;;;4939513;29;20090;-75
2021/09/14 11:57:18;;;;;;;6.32;2.80;;;;;;;;;;4952829;28;20038;-78
2021/09/14 11:59:44;;;;;;;4.57;2.63;;;;;;;;;;4954764;28;20070;-75
2021/09/14 12:02:09;;;;;;;5.38;2.92;;;;;;;;;;4953866;28;20078;-75
2021/09/14 12:04:34;;;;;;;6.15;2.53;;;;;;;;;;4954053;29;20039;-75
2021/09/14 12:07:00;;;;;;;5.25;2.70;;;;;;;;;;4953439;29;20043;-75
2021/09/14 12:09:28;;;;;;;7.65;2.88;;;;;;;;;;4954013;29;20047;-76
2021/09/14 12:12:06;;;;;;;5.97;2.78;;;;;;;;;;4953894;28;20050;-76
2021/09/14 12:14:32;;;;;;;7.47;2.47;;;;;;;;;;4952271;28;20047;-75
2021/09/14 12:16:59;;;;;;;3.85;2.65;;;;;;;;;;4953464;28;20546;-75
2021/09/14 12:19:25;;;;;;;4.10;2.78;;;;;;;;;;4953526;28;20043;-75
2021/09/14 12:21:52;;;;;;;7.72;2.75;;;;;;;;;;4953662;28;20039;-75
2021/09/14 12:24:19;;;;;;;4.75;2.50;;;;;;;;;;4954462;29;20070;-75
2021/09/14 12:26:46;;;;;;;12.60;2.88;;;;;;;;;;4952733;29;20442;-75
2021/09/14 12:29:12;;;;;;;8.65;2.70;;;;;;;;;;4954029;29;20079;-75
2021/09/14 12:31:39;;;;;;;6.38;2.60;;;;;;;;;;4952181;28;20082;-75
2021/09/14 12:34:05;;;;;;;5.18;2.40;;;;;;;;;;4955222;28;20031;-76
2021/09/14 12:36:30;;;;;;;4.65;2.22;;;;;;;;;;4957314;28;20043;-76
2021/09/14 12:38:56;;;;;;;6.18;2.40;;;;;;;;;;4955612;28;20042;-76
2021/09/14 12:41:22;;;;;;;5.80;2.92;;;;;;;;;;4956511;29;20067;-75
2021/09/14 12:43:49;;;;;;;6.07;2.83;;;;;;;;;;4958262;29;20460;-75
2021/09/14 12:46:15;;;;;;;4.18;2.50;;;;;;;;;;4958208;28;20043;-76
2021/09/14 12:48:41;;;;;;;3.20;2.20;;;;;;;;;;4958174;28;20038;-75
2021/09/14 12:51:06;;;;;;;6.03;2.63;;;;;;;;;;4956814;28;20039;-75
2021/09/14 12:53:32;;;;;;;5.75;2.72;;;;;;;;;;4954802;29;20429;-76
2021/09/14 12:55:58;;;;;;;3.45;2.40;;;;;;;;;;4958372;28;20046;-76
2021/09/14 12:58:23;;;;;;;4.63;2.38;;;;;;;;;;4957630;28;20031;-75
2021/09/14 13:00:49;;;;;;;2.58;2.10;;;;;;;;;;4957055;28;20488;-75
2021/09/14 13:03:14;;;;;;;4.65;2.63;;;;;;;;;;4956667;28;20067;-76
2021/09/14 13:05:41;;;;;;;7.97;2.20;;;;;;;;;;4957311;28;20042;-75
2021/09/14 13:08:07;;;;;;;4.00;2.67;;;;;;;;;;4957236;28;20050;-75
2021/09/14 13:10:33;;;;;;;6.07;3.22;;;;;;;;;;4957090;28;20122;-75
2021/09/14 13:18:27;;;;;;;3.13;2.30;;;;;;;;;;4955721;28;20050;-75
2021/09/14 13:20:52;;;;;;;4.40;2.38;;;;;;;;;;4956354;29;20028;-76
2021/09/14 13:23:17;;;;;;;2.90;2.42;;;;;;;;;;4956348;28;20035;-76
2021/09/14 13:25:43;;;;;;;2.70;2.03;;;;;;;;;;4956685;29;20038;-76
2021/09/14 13:28:08;;;;;;;6.25;2.38;;;;;;;;;;4956467;28;20117;-75
2021/09/14 13:30:34;;;;;;;5.45;2.42;;;;;;;;;;4954662;29;20039;-76
2021/09/14 13:32:59;;;;;;;3.88;2.42;;;;;;;;;;4956987;28;20450;-76
2021/09/14 13:35:25;;;;;;;9.27;2.63;;;;;;;;;;4955652;28;20158;-75
2021/09/14 13:37:52;;;;;;;5.68;2.50;;;;;;;;;;4956586;28;20027;-76
2021/09/14 13:40:18;;;;;;;8.45;2.65;;;;;;;;;;4955013;28;20114;-77
2021/09/14 13:42:43;;;;;;;4.32;2.50;;;;;;;;;;4956751;28;20062;-75
2021/09/14 13:47:53;;;;;;;4.03;2.67;;;;;;;;;;4955666;29;20105;-76
2021/09/14 13:50:18;;;;;;;5.15;2.15;;;;;;;;;;4955910;28;20043;-76
2021/09/14 13:52:44;;;;;;;11.95;3.00;;;;;;;;;;4954961;29;20114;-76
2021/09/14 13:55:09;;;;;;;4.22;2.30;;;;;;;;;;4955206;29;20039;-75
2021/09/14 13:57:35;;;;;;;6.90;2.40;;;;;;;;;;4956054;28;20039;-75
2021/09/14 14:00:00;;;;;;;3.00;2.30;;;;;;;;;;4955790;28;20438;-76
2021/09/14 14:02:26;;;;;;;10.23;2.65;;;;;;;;;;4955770;28;20050;-75
2021/09/14 14:04:51;;;;;;;5.50;2.50;;;;;;;;;;4954719;29;20050;-75
2021/09/14 14:07:17;;;;;;;9.57;2.88;;;;;;;;;;4956941;28;20039;-76
2021/09/14 14:09:42;;;;;;;8.63;2.63;;;;;;;;;;4955091;28;20039;-75
2021/09/14 14:12:08;;;;;;;4.90;2.35;;;;;;;;;;4956090;28;20477;-75
2021/09/14 14:14:33;;;;;;;7.18;2.78;;;;;;;;;;4956222;29;20045;-75
2021/09/14 14:16:59;;;;;;;3.60;2.08;;;;;;;;;;4955301;29;20031;-75
2021/09/14 14:19:24;;;;;;;4.53;2.55;;;;;;;;;;4956659;28;20086;-76
2021/09/14 14:21:50;;;;;;;8.07;3.00;;;;;;;;;;4949164;28;20090;-76
2021/09/14 14:24:15;;;;;;;7.22;3.38;;;;;;;;;;4953375;28;20051;-75
2021/09/14 14:26:40;;;;;;;10.00;2.72;;;;;;;;;;4955956;28;20078;-75
2021/09/14 14:29:06;;;;;;;7.53;3.53;;;;;;;;;;4954445;28;20043;-76
2021/09/14 14:31:31;;;;;;;6.47;2.67;;;;;;;;;;4954379;28;21820;-76
2021/09/14 14:33:57;;;;;;;4.13;2.42;;;;;;;;;;4952704;28;20051;-75
2021/09/14 14:36:22;;;;;;;2.42;2.20;;;;;;;;;;4954306;28;20035;-76
2021/09/14 14:38:48;;;;;;;7.13;2.45;;;;;;;;;;4954424;28;20045;-75
2021/09/14 14:41:14;;;;;;;3.13;2.30;;;;;;;;;;4956240;29;20126;-75
2021/09/14 14:43:39;;;;;;;4.88;2.40;;;;;;;;;;4955325;29;20046;-75
2021/09/14 14:46:05;;;;;;;3.30;2.40;;;;;;;;;;4954313;28;20035;-76
2021/09/14 14:48:33;;;;;;;5.05;2.45;;;;;;;;;;4955777;28;20074;-75
2021/09/14 14:50:59;;;;;;;3.85;2.53;;;;;;;;;;4952192;28;20032;-80
2021/09/14 14:53:25;;;;;;;2.95;2.33;;;;;;;;;;4956625;28;20058;-81
2021/09/14 14:55:50;;;;;;;2.70;2.17;;;;;;;;;;4957869;28;20035;-83
2021/09/14 14:58:16;;;;;;;4.50;2.40;;;;;;;;;;4955101;29;20521;-76
2021/09/14 15:00:43;;;;;;;4.43;2.42;;;;;;;;;;4955214;28;20027;-75
2021/09/14 15:03:08;;;;;;;4.78;2.60;;;;;;;;;;4953780;28;20046;-75
2021/09/14 15:05:34;;;;;;;4.13;2.05;;;;;;;;;;4950772;28;20471;-75
2021/09/14 15:07:59;;;;;;;4.13;2.40;;;;;;;;;;4937583;29;20053;-75
2021/09/14 15:10:24;;;;;;;3.67;2.13;;;;;;;;;;4945870;29;20027;-75
2021/09/14 15:12:50;;;;;;;3.00;2.08;;;;;;;;;;4952296;28;20496;-78
2021/09/14 15:15:15;;;;;;;6.70;2.40;;;;;;;;;;4939563;28;20043;-76
2021/09/14 15:17:41;;;;;;;9.35;2.40;;;;;;;;;;4948639;29;20043;-77
2021/09/14 15:20:07;;;;;;;4.22;2.42;;;;;;;;;;4953713;28;20054;-76
2021/09/14 15:22:33;;;;;;;3.28;2.47;;;;;;;;;;4953613;28;20027;-76
2021/09/14 15:24:58;;;;;;;3.85;2.50;;;;;;;;;;4951623;29;20039;-76
2021/09/14 15:27:25;;;;;;;4.38;2.15;;;;;;;;;;4953805;28;20038;-76
2021/09/14 15:29:53;;;;;;;4.05;2.30;;;;;;;;;;4953600;28;20075;-75
2021/09/14 15:32:19;;;;;;;4.53;2.50;;;;;;;;;;4952179;29;20051;-75
2021/09/14 15:34:44;;;;;;;3.80;2.60;;;;;;;;;;4954225;29;21941;-75